Pagrindinis puslapis
METAR-TAF:

METAR-TAF

Oro uostai :

Chinandega, Nikaragva

platuma: 12-38N, ilguma: 087-08W, Aukštis: 53 m

Dabartinis oras

Ataskaita buvo paskelbta 6 valandos ir 7 minutes, ne 23:00 UTC
Vėjas 4 kt iš Pietų
Temperatūra 31°C
Drėgmė 55%
Slėgis 1007 hPa
Matomumas 10 km arba daugiau
Mažai debesys ne aukštis 2500 ft

METAR: MNCH 312300Z 18004KT 9999 FEW025 31/21 Q1007

Laikas: 23:07 (05:07 UTC)


TAF: trūkstamas

Orai ataskaitas ir orų prognozės (METAR, TAF).

turimą stotys yra geltonos ir raudonos taškus žemėlapyje.

Perkelti pele per norėdami pamatyti stoties vardą.

Tada spustelėkite, norėdami matyti oro stebėjimo ir prognozės.

Norėdami pakeisti žemėlapį: spustelėkite ant žalios mygtukų su juodo kryžiaus žemyn,; žalią mygtuką su brūkšneliu, jei norite nutolinti; arba žalių rodyklių gretimoms žemėlapius.


METAR-TAF: